Time;durP1;ratioP1;P1;durP2;ratioP2;P2;SDS_P1;SDS_P2;PMS_P1;PMS_P2;Temp;Humidity;BMP_temperature;BMP_pressure;BME280_temperature;BME280_humidity;BME280_pressure;Samples;Min_cycle;Max_cycle;Signal;HPM_P1;HPM_P2
2022/08/25 00:03:57;;;;;;;13.93;2.95;;;;;;;15.37;64.33;101260.47;5032072;28;20422;-46
2022/08/25 00:06:45;;;;;;;9.57;2.40;;;;;;;15.31;64.65;101257.16;5032905;28;20081;-51
2022/08/25 00:09:34;;;;;;;6.22;1.83;;;;;;;15.25;64.72;101251.06;5036616;28;20127;-48
2022/08/25 00:12:21;;;;;;;8.88;3.38;;;;;;;15.17;65.06;101254.03;5036275;28;20487;-47
2022/08/25 00:15:09;;;;;;;10.68;1.83;;;;;;;15.11;65.31;101256.31;5032118;28;20087;-48
2022/08/25 00:17:57;;;;;;;10.10;2.30;;;;;;;15.08;65.33;101259.03;5035725;28;20184;-52
2022/08/25 00:20:45;;;;;;;15.63;2.35;;;;;;;15.01;65.92;101261.66;5035502;28;20388;-47
2022/08/25 00:23:35;;;;;;;10.23;3.25;;;;;;;14.95;65.83;101249.97;5032081;28;20136;-47
2022/08/25 00:26:22;;;;;;;8.13;2.30;;;;;;;14.94;65.86;101259.50;5036759;28;20037;-46
2022/08/25 00:29:10;;;;;;;6.18;1.95;;;;;;;14.96;65.76;101259.13;5018143;28;20447;-48
2022/08/25 00:31:58;;;;;;;8.00;1.83;;;;;;;14.99;65.61;101244.47;5016385;28;20129;-45
2022/08/25 00:34:45;;;;;;;15.23;2.25;;;;;;;14.95;65.93;101252.75;5033242;28;20103;-47
2022/08/25 00:37:32;;;;;;;10.52;2.50;;;;;;;14.95;65.52;101252.75;5034664;28;20073;-45
2022/08/25 00:40:20;;;;;;;7.40;2.00;;;;;;;14.91;66.00;101251.84;5033450;28;20111;-46
2022/08/25 00:43:08;;;;;;;10.18;2.40;;;;;;;14.83;65.96;101250.06;5036271;28;20128;-48
2022/08/25 00:45:55;;;;;;;7.43;2.03;;;;;;;14.76;66.42;101251.88;5036245;28;20091;-47
2022/08/25 00:48:46;;;;;;;12.30;2.60;;;;;;;14.68;66.58;101250.91;5031253;28;20050;-47
2022/08/25 00:51:41;;;;;;;8.68;2.08;;;;;;;14.66;66.73;101246.84;5030917;28;20045;-51
2022/08/25 00:54:39;;;;;;;7.05;1.90;;;;;;;14.61;66.77;101256.31;5015461;28;20104;-49
2022/08/25 00:57:33;;;;;;;8.73;1.75;;;;;;;14.60;66.83;101254.66;5016733;28;20475;-49
2022/08/25 01:00:23;;;;;;;9.52;2.20;;;;;;;14.55;66.91;101252.97;5025057;28;20045;-49
2022/08/25 01:03:11;;;;;;;11.02;2.72;;;;;;;14.56;66.80;101259.38;5035119;28;20124;-51
2022/08/25 01:06:00;;;;;;;9.32;2.38;;;;;;;14.56;66.92;101264.94;5033296;28;20204;-48
2022/08/25 01:08:31;;;;;;;8.35;2.75;;;;;;;14.58;66.98;101260.63;5018279;28;20095;-45
2022/08/25 01:11:02;;;;;;;9.93;2.45;;;;;;;14.61;66.85;101270.22;5035724;28;20047;-51
2022/08/25 01:13:43;;;;;;;6.33;1.97;;;;;;;14.59;66.95;101264.19;5034306;28;20063;-47
2022/08/25 01:16:13;;;;;;;8.48;2.35;;;;;;;14.59;66.75;101275.34;5015892;28;20042;-50
2022/08/25 01:18:51;;;;;;;13.77;3.22;;;;;;;14.55;66.96;101274.44;5016778;28;20042;-45
2022/08/25 01:21:20;;;;;;;16.95;2.75;;;;;;;14.56;66.93;101270.50;5015771;28;20038;-46
2022/08/25 01:23:51;;;;;;;9.13;2.35;;;;;;;14.52;67.18;101277.94;5031501;28;20053;-45
2022/08/25 01:26:22;;;;;;;8.48;2.75;;;;;;;14.50;67.27;101274.72;5032593;28;20069;-47
2022/08/25 01:31:44;;;;;;;14.25;4.10;;;;;;;14.52;67.14;101280.75;5022865;28;20038;-45
2022/08/25 01:34:12;;;;;;;7.65;2.70;;;;;;;14.49;67.31;101271.13;5023588;28;20049;-48
2022/08/25 01:36:41;;;;;;;9.45;2.10;;;;;;;14.46;67.25;101273.81;5031709;28;20049;-45
2022/08/25 01:39:08;;;;;;;8.57;2.38;;;;;;;14.41;67.41;101274.88;5033700;28;20533;-47
2022/08/25 01:41:44;;;;;;;9.65;2.95;;;;;;;14.34;67.67;101268.31;5034979;28;20042;-47
2022/08/25 01:44:12;;;;;;;11.82;2.40;;;;;;;14.33;67.80;101277.84;5033161;28;20503;-45
2022/08/25 01:46:42;;;;;;;15.45;2.78;;;;;;;14.34;67.62;101268.31;5031718;28;20048;-47
2022/08/25 01:49:09;;;;;;;10.25;2.45;;;;;;;14.35;67.66;101278.31;5030738;28;20096;-45
2022/08/25 01:51:47;;;;;;;12.18;2.88;;;;;;;14.31;67.93;101278.22;5033422;28;20361;-46
2022/08/25 01:54:14;;;;;;;14.73;3.33;;;;;;;14.32;67.98;101271.44;5032574;28;20099;-52
2022/08/25 01:56:41;;;;;;;12.65;2.50;;;;;;;14.32;68.14;101284.59;5029792;28;20037;-45
2022/08/25 02:03:00;;;;;;;6.13;2.28;;;;;;;14.18;68.41;101276.63;5032034;28;20490;-49
2022/08/25 02:05:28;;;;;;;23.55;6.70;;;;;;;14.13;68.60;101276.88;5028094;28;20057;-46
2022/08/25 02:07:58;;;;;;;8.88;2.80;;;;;;;14.09;68.80;101277.94;5026473;28;20514;-48
2022/08/25 02:10:26;;;;;;;9.65;2.08;;;;;;;14.04;68.99;101279.81;5033759;28;20057;-45
2022/08/25 02:12:53;;;;;;;14.77;2.92;;;;;;;14.02;69.15;101281.34;5030771;28;20045;-46
2022/08/25 02:15:20;;;;;;;8.93;2.65;;;;;;;13.99;69.41;101282.88;5013770;28;20491;-46
2022/08/25 02:17:47;;;;;;;14.38;2.88;;;;;;;13.96;69.40;101280.78;5032478;28;20092;-45
2022/08/25 02:24:15;;;;;;;16.75;3.70;;;;;;;13.84;69.52;101283.66;5033163;28;20446;-46
2022/08/25 02:27:02;;;;;;;12.10;2.45;;;;;;;13.84;69.64;101291.19;5030396;28;20053;-45
2022/08/25 02:29:50;;;;;;;10.18;2.92;;;;;;;13.92;69.51;101284.66;5030654;28;20095;-45
2022/08/25 02:32:38;;;;;;;9.20;2.65;;;;;;;13.97;69.47;101288.00;5031548;28;20203;-45
2022/08/25 02:35:25;;;;;;;10.80;3.33;;;;;;;13.97;69.39;101282.44;5022125;28;20084;-47
2022/08/25 02:38:13;;;;;;;7.65;1.95;;;;;;;13.95;69.46;101284.72;5031830;28;20143;-45
2022/08/25 02:41:06;;;;;;;17.10;4.03;;;;;;;13.94;69.51;101293.44;5027986;28;20157;-46
2022/08/25 02:43:54;;;;;;;12.57;3.58;;;;;;;13.95;69.53;101286.72;5028847;28;20140;-46
2022/08/25 02:46:41;;;;;;;9.43;2.08;;;;;;;13.97;69.42;101293.56;5029057;28;20112;-46
2022/08/25 02:49:29;;;;;;;9.95;2.20;;;;;;;13.99;69.55;101291.22;5033518;28;20124;-46
2022/08/25 02:52:16;;;;;;;12.02;2.30;;;;;;;13.95;69.62;101297.88;5030169;28;20049;-46
2022/08/25 02:55:07;;;;;;;11.65;2.03;;;;;;;13.93;69.76;101300.97;5031339;28;20563;-46
2022/08/25 02:57:54;;;;;;;8.65;2.83;;;;;;;13.93;69.82;101300.97;5028875;28;20531;-46
2022/08/25 06:08:32;;;;;;;11.93;2.38;;;;;;;13.03;76.79;101308.09;2722022;26;20129;-47
2022/08/25 06:11:06;;;;;;;14.20;3.20;;;;;;;13.03;76.77;101308.91;4989074;28;20503;-45
2022/08/25 06:13:33;;;;;;;8.45;2.30;;;;;;;13.06;77.04;101304.63;4992269;28;20138;-46
2022/08/25 06:16:00;;;;;;;12.93;3.00;;;;;;;13.06;77.17;101305.44;4993510;28;20042;-46
2022/08/25 06:18:26;;;;;;;11.60;4.55;;;;;;;13.07;77.33;101304.34;4992453;28;20117;-48
2022/08/25 06:20:53;;;;;;;7.53;2.78;;;;;;;13.11;77.06;101307.19;4979493;28;20043;-46
2022/08/25 06:23:20;;;;;;;14.68;2.92;;;;;;;13.16;77.11;101312.53;4973402;28;20054;-48
2022/08/25 06:25:49;;;;;;;12.35;2.33;;;;;;;13.19;77.25;101318.22;4987597;28;20054;-46
2022/08/25 06:28:17;;;;;;;14.35;2.95;;;;;;;13.21;77.29;101320.66;4992645;28;20514;-47
2022/08/25 06:30:44;;;;;;;11.00;2.10;;;;;;;13.23;77.30;101312.78;4992522;28;20054;-46
2022/08/25 06:33:11;;;;;;;21.70;3.00;;;;;;;13.26;77.26;101312.06;4990732;28;20488;-47
2022/08/25 06:35:43;;;;;;;12.20;3.35;;;;;;;13.28;77.37;101320.88;4992894;28;20050;-46
2022/08/25 06:41:38;;;;;;;10.70;2.83;;;;;;;13.34;77.28;101330.59;4987154;28;20484;-46
2022/08/25 06:44:05;;;;;;;10.55;2.38;;;;;;;13.36;77.18;101323.53;4990088;28;20508;-50
2022/08/25 06:46:33;;;;;;;16.42;2.85;;;;;;;13.37;77.09;101324.31;4990797;28;20057;-46
2022/08/25 06:49:06;;;;;;;15.52;2.38;;;;;;;13.40;77.27;101326.41;4984999;28;20034;-46
2022/08/25 06:51:50;;;;;;;13.60;2.50;;;;;;;13.45;77.37;101323.38;4976871;28;20042;-47
2022/08/25 06:55:00;;;;;;;12.07;3.67;;;;;;;13.48;77.15;101325.47;4969980;28;20038;-47
2022/08/25 07:08:32;;;;;;;13.10;2.42;;;;;;;13.67;76.84;101334.00;4983733;28;20508;-48
2022/08/25 07:11:07;;;;;;;12.88;2.60;;;;;;;13.70;77.12;101327.75;4990135;28;20034;-48
2022/08/25 07:13:43;;;;;;;9.68;2.58;;;;;;;13.75;76.99;101324.72;4989291;28;20102;-55
2022/08/25 07:17:04;;;;;;;5.88;2.03;;;;;;;13.81;77.30;101328.88;4991061;28;20045;-50
2022/08/25 07:19:38;;;;;;;10.75;2.08;;;;;;;14.03;77.34;101339.44;4982288;28;20043;-49
2022/08/25 07:26:10;;;;;;;9.07;2.05;;;;;;;14.51;76.39;101345.97;4980941;28;20039;-47
2022/08/25 07:33:02;;;;;;;12.07;2.17;;;;;;;14.66;76.01;101355.53;4984639;28;20042;-52
2022/08/25 07:35:36;;;;;;;10.57;2.30;;;;;;;14.69;75.98;101369.59;4993297;28;20046;-46
2022/08/25 07:38:05;;;;;;;6.60;2.40;;;;;;;14.68;75.84;101359.59;4990233;28;20042;-45
2022/08/25 07:40:36;;;;;;;;;;;;;;;14.71;75.85;101364.44;4992580;28;20049;-44
2022/08/25 07:43:09;;;;;;;7.05;2.72;;;;;;;14.76;75.52;101366.16;4989717;28;19973;-44
2022/08/25 07:45:38;;;;;;;11.88;2.38;;;;;;;14.81;75.36;101363.91;4983102;28;20435;-46
2022/08/25 07:48:15;;;;;;;8.73;2.72;;;;;;;14.87;75.32;101364.47;4980163;28;20067;-46
2022/08/25 07:50:44;;;;;;;3.50;2.05;;;;;;;14.94;74.96;101368.25;4993845;28;20042;-44
2022/08/25 07:53:13;;;;;;;13.75;2.10;;;;;;;15.00;74.94;101377.16;4988567;28;20051;-44
2022/08/25 07:55:40;;;;;;;11.88;2.53;;;;;;;15.02;74.78;101383.16;4981427;28;20046;-44
2022/08/25 08:02:37;;;;;;;7.90;2.67;;;;;;;15.08;74.25;101393.72;4987067;28;20031;-48
2022/08/25 08:08:56;;;;;;;9.00;2.83;;;;;;;15.17;74.23;101391.53;4979185;28;20393;-46
2022/08/25 08:11:26;;;;;;;9.82;2.75;;;;;;;15.20;74.52;101390.81;4988560;28;20042;-44
2022/08/25 08:13:55;;;;;;;9.82;2.45;;;;;;;15.29;74.82;101392.59;4993336;28;20065;-44
2022/08/25 08:16:24;;;;;;;12.57;2.25;;;;;;;15.37;75.15;101392.44;4993226;28;20089;-48
2022/08/25 08:23:02;;;;;;;9.05;3.97;;;;;;;15.88;76.04;101395.22;4980527;28;20039;-44
2022/08/25 08:25:29;;;;;;;7.55;2.17;;;;;;;16.10;76.67;101400.09;4982852;28;20042;-45
2022/08/25 08:27:56;;;;;;;13.60;3.97;;;;;;;16.33;76.47;101387.84;4977523;28;20058;-44
2022/08/25 08:30:23;;;;;;;5.82;1.83;;;;;;;16.62;76.55;101397.63;4997309;28;20393;-47
2022/08/25 08:32:53;;;;;;;8.85;2.25;;;;;;;16.89;75.90;101398.50;4994661;28;20452;-46
2022/08/25 08:36:04;;;;;;;9.00;1.55;;;;;;;17.44;75.33;101406.25;4989090;28;20508;-44
2022/08/25 08:38:41;;;;;;;8.45;1.92;;;;;;;18.09;73.57;101404.03;4990619;28;20042;-44
2022/08/25 08:44:35;;;;;;;6.03;1.98;;;;;;;20.08;66.66;101403.91;4994114;28;20050;-45
2022/08/25 08:47:51;;;;;;;8.60;2.05;;;;;;;21.37;62.19;101408.31;4988516;28;20043;-46
2022/08/25 08:50:50;;;;;;;7.00;2.42;;;;;;;22.39;58.46;101402.50;4977014;28;20128;-46
2022/08/25 08:53:53;;;;;;;6.95;1.80;;;;;;;23.23;55.85;101408.84;4970060;28;20054;-46
2022/08/25 08:56:30;;;;;;;5.35;1.40;;;;;;;23.83;52.81;101410.38;4989951;28;20039;-45
2022/08/25 08:59:03;;;;;;;9.02;1.80;;;;;;;24.17;50.24;101402.72;4996638;28;20369;-46
2022/08/25 09:01:45;;;;;;;6.03;1.70;;;;;;;24.49;49.10;101403.09;4996166;28;20563;-45
2022/08/25 09:04:44;;;;;;;9.23;2.00;;;;;;;25.08;48.12;101392.16;4996525;28;20056;-45
2022/08/25 09:07:16;;;;;;;9.68;2.20;;;;;;;25.63;46.29;101397.31;4983834;28;20519;-46
2022/08/25 09:09:46;;;;;;;6.50;2.10;;;;;;;25.85;45.11;101401.38;4967147;28;20047;-46
2022/08/25 09:12:20;;;;;;;;;;;;;;;25.87;46.95;101398.09;4984536;28;20042;-48
2022/08/25 09:15:13;;;;;;;7.43;1.90;;;;;;;26.30;44.74;101400.94;4991884;28;19923;-47
2022/08/25 09:25:22;;;;;;;7.82;1.73;;;;;;;26.97;40.79;101394.59;4990554;28;20034;-44
2022/08/25 09:28:37;;;;;;;6.95;1.85;;;;;;;27.01;40.75;101394.47;4991525;28;20137;-45
2022/08/25 09:34:55;;;;;;;6.53;2.00;;;;;;;27.17;38.58;101395.31;4995598;28;20576;-45
2022/08/25 09:37:23;;;;;;;6.35;1.52;;;;;;;27.39;37.95;101392.72;4962401;28;20057;-45
2022/08/25 09:39:50;;;;;;;5.60;1.55;;;;;;;27.45;37.07;101402.38;4995939;28;20168;-45
2022/08/25 09:42:19;;;;;;;9.43;1.77;;;;;;;27.48;36.96;101389.28;4990958;28;20097;-47
2022/08/25 09:44:49;;;;;;;8.02;2.05;;;;;;;27.55;36.37;101383.41;4988350;28;20776;-45
2022/08/25 09:47:26;;;;;;;7.97;1.80;;;;;;;27.61;37.12;101385.28;4995631;28;20049;-45
2022/08/25 09:53:33;;;;;;;4.82;1.70;;;;;;;28.09;35.77;101381.50;4960378;28;20045;-46
2022/08/25 09:56:26;;;;;;;5.35;1.58;;;;;;;28.05;35.16;101372.28;4989634;28;20073;-46
2022/08/25 09:59:34;;;;;;;6.00;1.70;;;;;;;28.17;35.63;101380.06;4991374;28;20121;-45
2022/08/25 10:02:24;;;;;;;7.50;2.10;;;;;;;28.39;35.05;101380.22;4987095;28;20035;-44
2022/08/25 10:04:52;;;;;;;8.52;1.75;;;;;;;28.30;34.78;101383.72;4994453;28;20179;-45
2022/08/25 10:07:53;;;;;;;6.57;1.85;;;;;;;28.26;34.46;101371.66;4994052;28;20046;-47
2022/08/25 10:10:52;;;;;;;5.65;1.55;;;;;;;28.23;34.11;101378.25;4994136;28;20050;-45
2022/08/25 10:13:46;;;;;;;6.20;1.38;;;;;;;27.83;34.05;101370.47;4992886;28;20502;-44
2022/08/25 10:16:33;;;;;;;6.50;1.58;;;;;;;27.50;33.98;101369.72;4993570;28;20077;-45
2022/08/25 10:19:25;;;;;;;5.60;1.40;;;;;;;27.61;34.21;101359.66;4992555;28;20144;-46
2022/08/25 10:26:36;;;;;;;5.47;1.45;;;;;;;28.24;33.26;101351.38;4993240;28;20036;-46
2022/08/25 10:29:41;;;;;;;9.35;1.52;;;;;;;28.29;33.02;101359.38;4994237;28;20116;-45
2022/08/25 10:32:53;;;;;;;8.25;1.48;;;;;;;28.21;32.13;101352.28;4993014;28;20050;-45
2022/08/25 10:36:13;;;;;;;3.90;1.23;;;;;;;27.98;32.37;101349.69;4983126;28;20123;-46
2022/08/25 10:39:18;;;;;;;6.18;1.00;;;;;;;27.96;32.24;101346.47;4973328;28;20047;-46
2022/08/25 10:50:28;;;;;;;4.40;1.10;;;;;;;27.15;32.85;101346.63;4994132;28;20042;-45
2022/08/25 10:53:13;;;;;;;6.80;1.48;;;;;;;26.62;33.65;101330.03;4980719;28;20039;-45
2022/08/25 11:03:32;;;;;;;5.90;1.08;;;;;;;24.92;36.37;101323.22;4991319;28;20038;-45
2022/08/25 11:06:16;;;;;;;6.15;1.42;;;;;;;24.76;36.48;101310.50;4994015;28;20038;-46
2022/08/25 11:08:52;;;;;;;7.20;1.35;;;;;;;24.53;36.71;101318.94;4991024;28;20081;-46
2022/08/25 11:11:45;;;;;;;4.03;0.77;;;;;;;24.00;37.12;101307.53;4989199;28;20065;-49
2022/08/25 11:14:45;;;;;;;5.53;1.13;;;;;;;23.94;37.51;101317.69;4984803;28;20388;-45
2022/08/25 11:17:54;;;;;;;2.95;0.90;;;;;;;23.92;37.85;101314.50;4994190;28;20618;-47
2022/08/25 11:21:08;;;;;;;9.93;2.25;;;;;;;23.83;37.75;101319.88;4994001;28;20496;-49
2022/08/25 11:24:08;;;;;;;5.00;1.52;;;;;;;23.37;37.95;101324.00;4995073;28;20086;-45
2022/08/25 11:26:56;;;;;;;5.05;1.30;;;;;;;22.80;38.83;101320.00;4980128;28;20137;-46
2022/08/25 11:37:07;;;;;;;4.20;1.20;;;;;;;21.49;41.20;101308.50;4987933;28;20053;-44
2022/08/25 11:39:54;;;;;;;6.47;1.27;;;;;;;21.39;41.12;101307.31;4993703;28;20488;-45
2022/08/25 11:42:27;;;;;;;5.68;1.33;;;;;;;21.30;41.18;101301.28;4989298;28;20542;-44
2022/08/25 11:45:41;;;;;;;5.72;1.05;;;;;;;21.51;40.97;101294.81;4985950;28;20436;-45
2022/08/25 11:48:20;;;;;;;6.68;1.92;;;;;;;21.68;41.02;101291.16;4992831;28;20042;-45
2022/08/25 11:51:03;;;;;;;5.32;1.10;;;;;;;21.83;40.64;101299.16;4993915;28;20048;-47
2022/08/25 11:53:34;;;;;;;5.55;1.20;;;;;;;21.93;40.75;101291.88;4993718;28;20046;-47
2022/08/25 11:56:08;;;;;;;4.28;1.33;;;;;;;22.11;40.51;101294.59;4992503;28;20053;-46
2022/08/25 12:02:07;;;;;;;10.68;1.30;;;;;;;22.11;40.34;101301.06;4990714;28;19918;-48
2022/08/25 12:04:41;;;;;;;6.05;0.93;;;;;;;21.90;40.72;101300.34;4996071;28;20042;-45
2022/08/25 12:11:05;;;;;;;5.65;1.20;;;;;;;21.52;41.66;101296.44;4987609;28;20409;-45
2022/08/25 12:13:48;;;;;;;6.68;1.27;;;;;;;21.50;41.58;101296.81;4993375;28;20097;-46
2022/08/25 12:16:34;;;;;;;6.18;1.77;;;;;;;21.45;42.16;101290.78;4987401;28;20057;-46
2022/08/25 12:22:53;;;;;;;4.95;1.33;;;;;;;21.54;41.96;101299.63;4989634;28;20092;-47
2022/08/25 12:29:44;;;;;;;4.25;1.40;;;;;;;21.33;42.16;101291.22;4984777;28;20109;-46
2022/08/25 12:32:33;;;;;;;10.30;2.95;;;;;;;21.15;43.03;101303.31;4976614;28;20051;-46
2022/08/25 12:35:59;;;;;;;6.97;1.35;;;;;;;20.93;42.90;101296.06;4992801;28;20039;-50
2022/08/25 12:38:51;;;;;;;10.93;1.48;;;;;;;20.67;43.19;101302.09;4995773;28;20058;-46
2022/08/25 12:50:49;;;;;;;10.23;1.13;;;;;;;20.40;42.94;101292.41;4994470;28;20400;-47
2022/08/25 12:53:26;;;;;;;5.32;1.10;;;;;;;20.60;43.02;101290.81;4988045;28;20054;-47
2022/08/25 12:56:19;;;;;;;8.15;1.55;;;;;;;20.80;42.48;101294.06;4978895;28;20057;-47
2022/08/25 12:58:54;;;;;;;4.85;0.80;;;;;;;20.99;42.12;101297.28;4994504;28;20076;-46
2022/08/25 13:02:16;;;;;;;1.65;0.47;;;;;;;21.05;42.70;101290.03;4995799;28;20046;-47
2022/08/25 13:05:15;;;;;;;6.10;1.60;;;;;;;21.21;42.48;101296.06;4996440;28;20039;-49
2022/08/25 13:08:25;;;;;;;4.63;1.20;;;;;;;21.35;42.32;101291.63;4979942;28;20051;-46
2022/08/25 13:15:40;;;;;;;3.65;1.10;;;;;;;22.40;41.79;101285.56;4995199;28;20053;-49
2022/08/25 13:18:32;;;;;;;2.92;1.10;;;;;;;22.80;41.18;101288.94;4994263;28;20500;-47
2022/08/25 13:21:39;;;;;;;3.40;0.80;;;;;;;22.95;40.50;101281.97;4994437;28;20133;-49
2022/08/25 13:24:48;;;;;;;3.20;0.60;;;;;;;23.04;40.57;101285.91;4992715;28;20086;-51
2022/08/25 13:32:00;;;;;;;2.97;0.90;;;;;;;22.47;39.93;101283.94;4985598;28;20034;-49
2022/08/25 13:34:47;;;;;;;3.25;0.93;;;;;;;22.35;40.07;101283.19;4993837;28;20404;-49
2022/08/25 13:37:37;;;;;;;3.03;0.82;;;;;;;22.45;40.18;101282.31;4995435;28;20045;-47
2022/08/25 13:44:18;;;;;;;4.70;1.05;;;;;;;22.96;39.27;101266.63;4993769;28;20531;-49
2022/08/25 13:46:46;;;;;;;3.05;0.80;;;;;;;23.12;38.66;101275.34;4982021;28;20134;-50
2022/08/25 13:53:15;;;;;;;4.43;0.60;;;;;;;23.04;38.40;101268.16;4989977;28;20039;-50
2022/08/25 13:56:06;;;;;;;5.43;1.00;;;;;;;22.83;39.03;101271.19;4993995;28;20053;-46
2022/08/25 13:59:02;;;;;;;3.22;0.80;;;;;;;22.86;39.08;101270.34;4986501;28;20126;-47
2022/08/25 14:01:52;;;;;;;3.90;1.02;;;;;;;22.92;38.84;101271.50;5010639;28;20038;-47
2022/08/25 14:04:47;;;;;;;4.07;0.85;;;;;;;22.96;38.46;101272.28;5012539;28;20049;-47
2022/08/25 14:07:17;;;;;;;2.53;1.00;;;;;;;22.88;39.03;101267.91;5012687;28;20113;-45
2022/08/25 14:10:07;;;;;;;3.40;1.35;;;;;;;22.83;38.65;101265.53;5011421;28;20053;-46
2022/08/25 14:12:46;;;;;;;3.75;1.40;;;;;;;22.78;38.88;101258.31;5004833;28;20037;-45
2022/08/25 14:15:20;;;;;;;1.20;0.85;;;;;;;23.15;38.88;101260.41;5014698;28;20068;-45
2022/08/25 14:17:59;;;;;;;4.75;0.85;;;;;;;23.36;38.48;101254.53;5004176;28;20403;-47
2022/08/25 14:20:29;;;;;;;4.57;0.82;;;;;;;23.30;38.26;101252.59;5015214;28;20450;-46
2022/08/25 14:22:59;;;;;;;1.25;0.40;;;;;;;23.23;38.08;101253.47;5015230;28;20044;-48
2022/08/25 14:25:48;;;;;;;4.80;1.15;;;;;;;23.14;38.31;101255.94;5011140;28;20178;-46
2022/08/25 14:32:36;;;;;;;6.00;0.68;;;;;;;23.20;38.22;101253.47;5011386;28;20050;-47
2022/08/25 14:35:23;;;;;;;2.03;0.50;;;;;;;23.52;37.63;101248.31;5007617;28;20504;-47
2022/08/25 14:45:30;;;;;;;3.80;0.80;;;;;;;23.94;36.93;101242.13;5013667;28;20037;-46
2022/08/25 14:48:27;;;;;;;2.83;0.75;;;;;;;23.66;37.14;101241.69;5014264;28;20038;-48
2022/08/25 14:51:14;;;;;;;2.28;0.70;;;;;;;23.41;37.19;101242.78;5011160;28;20085;-47
2022/08/25 14:54:17;;;;;;;4.75;1.17;;;;;;;23.28;37.28;101238.88;5011569;28;20056;-48
2022/08/25 14:57:05;;;;;;;7.55;0.82;;;;;;;23.33;37.73;101229.13;5008051;28;20507;-49
2022/08/25 14:59:34;;;;;;;4.53;0.70;;;;;;;23.79;37.32;101234.25;5011448;28;20050;-47
2022/08/25 15:02:13;;;;;;;3.30;0.80;;;;;;;23.86;37.27;101228.50;5012364;28;20038;-46
2022/08/25 15:05:07;;;;;;;2.17;0.68;;;;;;;23.75;36.94;101233.53;5013162;28;20050;-48
2022/08/25 15:11:09;;;;;;;4.43;1.23;;;;;;;23.39;37.54;101231.13;5010658;28;20061;-46
2022/08/25 15:20:52;;;;;;;6.05;1.45;;;;;;;22.85;38.70;101232.03;4999316;28;20054;-49
2022/08/25 15:24:13;;;;;;;2.70;0.73;;;;;;;22.71;38.49;101230.16;5012144;28;20037;-46
2022/08/25 15:26:52;;;;;;;5.00;0.80;;;;;;;22.50;38.85;101229.50;5005241;28;20046;-48
2022/08/25 15:29:54;;;;;;;3.03;0.80;;;;;;;22.38;39.27;101234.41;5014471;28;20092;-46
2022/08/25 15:32:23;;;;;;;4.07;1.20;;;;;;;22.38;39.30;101225.94;5010427;28;20470;-45
2022/08/25 15:35:22;;;;;;;8.05;1.33;;;;;;;22.42;39.33;101229.53;5012114;28;20100;-47
2022/08/25 15:38:14;;;;;;;4.70;0.85;;;;;;;22.41;39.44;101230.75;5004526;28;20061;-47
2022/08/25 15:56:27;;;;;;;9.52;0.90;;;;;;;22.55;39.51;101206.47;5011793;28;20128;-48
2022/08/25 16:02:45;;;;;;;5.13;0.88;;;;;;;22.65;39.08;101194.31;5015909;28;20461;-49
2022/08/25 16:13:10;;;;;;;3.95;1.17;;;;;;;22.36;39.89;101188.88;4990521;28;20116;-44
2022/08/25 16:15:48;;;;;;;6.20;1.23;;;;;;;22.33;39.94;101189.72;4992733;28;20050;-46
2022/08/25 16:18:21;;;;;;;5.00;1.15;;;;;;;22.35;39.95;101186.47;4995184;28;20299;-45
2022/08/25 16:20:49;;;;;;;8.57;1.83;;;;;;;22.31;39.68;101180.88;4997209;28;20097;-46
2022/08/25 16:27:16;;;;;;;8.45;1.30;;;;;;;22.13;40.20;101191.47;4989924;28;20046;-53
2022/08/25 16:29:43;;;;;;;7.53;1.05;;;;;;;22.12;40.84;101197.50;4988493;28;20045;-45
2022/08/25 16:32:12;;;;;;;7.38;1.25;;;;;;;22.05;41.04;101183.47;4993768;28;20038;-43
2022/08/25 16:38:29;;;;;;;5.32;1.23;;;;;;;21.87;40.73;101194.06;4993485;28;20077;-43
2022/08/25 16:48:39;;;;;;;9.75;1.30;;;;;;;21.77;41.66;101187.22;4990259;28;20503;-45
2022/08/25 16:51:12;;;;;;;7.78;1.50;;;;;;;21.80;41.58;101183.56;4988393;28;20050;-45
2022/08/25 16:56:28;;;;;;;6.22;1.70;;;;;;;21.79;41.58;101176.31;4994378;28;20054;-46
2022/08/25 16:59:11;;;;;;;5.82;2.08;;;;;;;21.77;41.64;101175.94;4994296;28;20046;-50
2022/08/25 17:01:58;;;;;;;5.97;1.10;;;;;;;21.68;41.63;101167.16;4991972;28;20125;-45
2022/08/25 17:04:25;;;;;;;4.85;1.20;;;;;;;21.60;41.56;101179.66;4994331;28;20038;-45
2022/08/25 17:06:58;;;;;;;4.63;1.52;;;;;;;21.55;41.72;101180.09;4976975;28;20495;-46
2022/08/25 17:09:28;;;;;;;7.97;1.15;;;;;;;21.58;41.93;101179.25;4987830;28;20061;-45
2022/08/25 17:11:55;;;;;;;5.45;1.40;;;;;;;21.53;42.42;101176.84;4994039;28;20105;-45
2022/08/25 17:14:23;;;;;;;8.40;1.30;;;;;;;21.54;42.28;101172.84;4986231;28;20496;-46
2022/08/25 17:16:53;;;;;;;6.28;1.25;;;;;;;21.53;42.50;101174.84;4989076;28;20097;-44
2022/08/25 17:19:21;;;;;;;5.75;2.50;;;;;;;21.54;42.10;101178.47;4993557;28;20050;-44
2022/08/25 17:21:49;;;;;;;8.68;1.52;;;;;;;21.49;41.97;101167.63;4993281;28;20043;-44
2022/08/25 17:24:16;;;;;;;4.80;1.17;;;;;;;21.48;42.20;101177.28;4974744;28;20051;-44
2022/08/25 17:26:46;;;;;;;4.35;1.05;;;;;;;21.47;42.29;101175.69;4992667;28;20193;-48
2022/08/25 17:29:17;;;;;;;4.00;1.10;;;;;;;21.47;42.02;101173.66;4993179;28;20038;-47
2022/08/25 17:31:49;;;;;;;5.45;1.20;;;;;;;21.45;42.15;101178.09;4993208;28;20050;-44
2022/08/25 17:34:19;;;;;;;5.35;1.10;;;;;;;21.48;42.42;101177.28;4961294;28;20047;-46
2022/08/25 17:36:49;;;;;;;;;;;;;;;21.42;42.15;101176.13;4984975;28;20409;-45
2022/08/25 17:39:17;;;;;;;7.30;1.35;;;;;;;21.34;42.60;101168.91;4994215;28;19957;-44
2022/08/25 17:41:44;;;;;;;7.78;1.27;;;;;;;21.27;42.52;101164.09;4982152;28;20034;-45
2022/08/25 17:44:12;;;;;;;5.97;1.50;;;;;;;21.19;42.56;101166.13;4992992;28;20443;-44
2022/08/25 17:46:41;;;;;;;7.28;1.20;;;;;;;21.19;43.26;101160.50;4962956;28;20509;-45
2022/08/25 17:49:19;;;;;;;7.32;1.23;;;;;;;21.39;43.05;101160.03;4993160;28;20050;-44
2022/08/25 17:51:46;;;;;;;7.13;1.25;;;;;;;21.54;42.91;101156.75;4975349;28;20038;-45
2022/08/25 17:54:13;;;;;;;6.32;1.10;;;;;;;21.63;42.69;101153.50;4992208;28;20393;-45
2022/08/25 17:56:40;;;;;;;4.93;1.23;;;;;;;21.67;42.75;101151.44;4986552;28;20463;-45
2022/08/25 17:59:08;;;;;;;5.53;1.33;;;;;;;21.67;42.76;101157.88;4973093;28;20050;-45
2022/08/25 18:01:38;;;;;;;5.30;1.02;;;;;;;21.55;42.61;101154.72;4992051;28;20411;-45
2022/08/25 18:04:07;;;;;;;;;;;;;;;21.43;42.73;101158.00;4994216;28;20054;-44
2022/08/25 18:06:43;;;;;;;6.03;2.25;;;;;;;21.38;42.99;101162.06;4977059;28;19929;-47
2022/08/25 18:13:01;;;;;;;6.25;1.27;;;;;;;21.08;43.25;101164.56;4970400;28;20500;-44
2022/08/25 18:15:29;;;;;;;5.63;1.50;;;;;;;21.03;43.48;101170.56;4973028;28;20125;-47
2022/08/25 18:17:56;;;;;;;4.55;1.05;;;;;;;20.99;43.40;101166.97;4964133;28;20034;-44
2022/08/25 18:20:23;;;;;;;8.18;1.60;;;;;;;20.93;43.66;101163.78;4966743;28;20051;-48
2022/08/25 18:22:50;;;;;;;7.50;1.42;;;;;;;20.88;43.45;101167.00;4966001;28;20113;-46
2022/08/25 18:25:17;;;;;;;6.32;2.22;;;;;;;20.78;43.78;101162.19;4975496;28;20102;-46
2022/08/25 18:27:43;;;;;;;8.55;3.00;;;;;;;20.77;44.18;101162.59;4974716;28;20109;-44
2022/08/25 18:30:11;;;;;;;6.03;1.77;;;;;;;20.75;44.28;101160.19;4968078;28;20054;-44
2022/08/25 18:32:39;;;;;;;9.77;2.30;;;;;;;20.78;44.15;101161.38;4968147;28;20382;-44
2022/08/25 18:35:26;;;;;;;5.72;1.95;;;;;;;20.75;44.44;101163.00;4971289;28;20043;-46
2022/08/25 18:42:05;;;;;;;4.22;1.65;;;;;;;20.62;44.44;101167.44;4971842;28;20046;-46
2022/08/25 18:44:52;;;;;;;10.10;2.28;;;;;;;20.56;46.68;101157.78;4967231;28;20404;-44
2022/08/25 18:47:40;;;;;;;14.05;2.72;;;;;;;20.44;48.67;101159.00;4963577;28;20061;-45
2022/08/25 18:50:31;;;;;;;13.07;3.58;;;;;;;20.34;50.27;101153.38;4970073;28;20142;-46
2022/08/25 18:53:23;;;;;;;8.97;2.47;;;;;;;20.24;50.30;101154.97;4963829;28;20133;-47
2022/08/25 18:56:52;;;;;;;10.73;1.98;;;;;;;20.18;48.58;101144.50;4967437;28;20039;-44
2022/08/25 18:59:22;;;;;;;4.07;1.50;;;;;;;20.18;48.02;101152.94;4963875;28;20117;-47
2022/08/25 19:01:51;;;;;;;7.63;1.40;;;;;;;20.15;47.88;101156.56;4971752;28;20050;-46
2022/08/25 19:04:19;;;;;;;9.35;2.70;;;;;;;20.12;49.56;101149.72;4961428;28;20042;-46